createdAt,value
2018-05-23T00:01:36.067Z,101350.98
2018-05-23T00:04:42.165Z,101352.63
2018-05-23T00:07:48.216Z,101358.34
2018-05-23T00:10:53.522Z,101355.47
2018-05-23T00:13:59.688Z,101362.06
2018-05-23T00:17:05.289Z,101352.11
2018-05-23T00:20:11.313Z,101356.03
2018-05-23T00:23:17.246Z,101362.49
2018-05-23T00:26:22.942Z,101362.03
2018-05-23T00:29:27.573Z,101363.96
2018-05-23T00:32:32.801Z,101368.05
2018-05-23T00:35:38.016Z,101374.58
2018-05-23T00:38:43.209Z,101373.59
2018-05-23T00:41:48.901Z,101376.45
2018-05-23T00:44:53.820Z,101374.50
2018-05-23T00:47:59.032Z,101374.17
2018-05-23T00:51:05.153Z,101381.12
2018-05-23T00:54:11.113Z,101385.73
2018-05-23T00:57:16.326Z,101383.91
2018-05-23T01:00:21.974Z,101387.73
2018-05-23T01:03:26.578Z,101387.97
2018-05-23T01:06:31.769Z,101396.25
2018-05-23T01:09:36.990Z,101394.34
2018-05-23T01:12:42.185Z,101391.50
2018-05-23T01:15:47.072Z,101393.33
2018-05-23T01:18:52.185Z,101390.78
2018-05-23T01:21:57.401Z,101397.89
2018-05-23T01:25:03.535Z,101399.27
2018-05-23T01:28:08.465Z,101407.23
2018-05-23T01:31:14.181Z,101412.19
2018-05-23T01:34:19.999Z,101417.16
2018-05-23T01:37:25.897Z,101419.91
2018-05-23T01:40:31.856Z,101419.27
2018-05-23T01:43:37.305Z,101417.70
2018-05-23T01:46:44.456Z,101419.12
2018-05-23T01:49:49.998Z,101417.60
2018-05-23T01:52:56.141Z,101418.17
2018-05-23T01:56:01.353Z,101422.16
2018-05-23T01:59:06.553Z,101425.72
2018-05-23T02:02:12.359Z,101426.36
2018-05-23T02:05:17.316Z,101417.49
2018-05-23T02:08:22.517Z,101427.88
2018-05-23T02:11:27.495Z,101428.41
2018-05-23T02:14:32.698Z,101428.14
2018-05-23T02:17:37.894Z,101427.57
2018-05-23T02:20:42.785Z,101435.80
2018-05-23T02:23:47.972Z,101439.31
2018-05-23T02:26:53.189Z,101438.97
2018-05-23T02:29:58.401Z,101438.25
2018-05-23T02:33:03.635Z,101437.67
2018-05-23T02:36:09.953Z,101434.75
2018-05-23T02:39:15.877Z,101436.60
2018-05-23T02:42:21.758Z,101444.79
2018-05-23T02:45:27.648Z,101442.08
2018-05-23T02:48:33.881Z,101442.61
2018-05-23T02:51:39.790Z,101442.69
2018-05-23T02:54:45.826Z,101451.70
2018-05-23T02:57:51.429Z,101456.23
2018-05-23T03:00:57.134Z,101461.34
2018-05-23T03:04:02.333Z,101452.96
2018-05-23T03:07:07.984Z,101459.58
2018-05-23T03:10:13.186Z,101469.84
2018-05-23T03:13:19.199Z,101467.06
2018-05-23T03:16:25.225Z,101477.08
2018-05-23T03:19:31.200Z,101478.52
2018-05-23T03:22:36.921Z,101478.41
2018-05-23T03:25:43.042Z,101485.53
2018-05-23T03:28:48.939Z,101490.30
2018-05-23T03:31:55.983Z,101486.23
2018-05-23T03:35:01.817Z,101490.93
2018-05-23T03:38:07.741Z,101493.61
2018-05-23T03:41:14.230Z,101493.95
2018-05-23T03:44:19.421Z,101494.09
2018-05-23T03:47:24.630Z,101500.49
2018-05-23T03:50:29.844Z,101504.36
2018-05-23T03:53:35.857Z,101516.91
2018-05-23T03:56:41.561Z,101516.53
2018-05-23T03:59:58.798Z,101526.41
2018-05-23T04:03:15.379Z,101531.48
2018-05-23T04:10:20.450Z,101544.55
2018-05-23T04:13:26.609Z,101544.00
2018-05-23T04:16:32.212Z,101547.18
2018-05-23T04:19:38.423Z,101545.72
2018-05-23T04:22:43.652Z,101553.91
2018-05-23T04:25:48.864Z,101553.55
2018-05-23T04:28:55.161Z,101556.41
2018-05-23T04:32:00.381Z,101560.87
2018-05-23T04:35:05.599Z,101561.11
2018-05-23T04:38:10.814Z,101559.30
2018-05-23T04:41:16.015Z,101564.34
2018-05-23T04:44:21.230Z,101565.67
2018-05-23T04:47:26.156Z,101565.08
2018-05-23T04:50:32.159Z,101573.05
2018-05-23T04:53:38.176Z,101571.58
2018-05-23T04:56:43.402Z,101572.31
2018-05-23T04:59:48.613Z,101581.64
2018-05-23T05:02:54.221Z,101582.27
2018-05-23T05:05:59.437Z,101585.50
2018-05-23T05:09:03.844Z,101594.75
2018-05-23T05:12:08.528Z,101600.12
2018-05-23T05:15:14.455Z,101600.31
2018-05-23T05:18:20.679Z,101605.22
2018-05-23T05:21:26.453Z,101610.98
2018-05-23T05:24:32.674Z,101618.44
2018-05-23T05:27:38.241Z,101622.95
2018-05-23T05:30:44.177Z,101623.98
2018-05-23T05:33:49.922Z,101623.31
2018-05-23T05:36:55.967Z,101628.97
2018-05-23T05:40:01.934Z,101631.67
2018-05-23T05:43:08.113Z,101640.86
2018-05-23T05:46:13.925Z,101642.23
2018-05-23T05:49:19.869Z,101646.20
2018-05-23T05:52:26.193Z,101655.36
2018-05-23T05:55:31.397Z,101656.31
2018-05-23T05:58:37.519Z,101662.03
2018-05-23T06:01:44.871Z,101662.11
2018-05-23T06:04:50.773Z,101667.72
2018-05-23T06:07:55.976Z,101672.95
2018-05-23T06:11:01.826Z,101670.87
2018-05-23T06:14:07.974Z,101679.53
2018-05-23T06:17:13.899Z,101677.87
2018-05-23T06:20:19.816Z,101676.17
2018-05-23T06:23:25.270Z,101675.23
2018-05-23T06:26:31.491Z,101686.92
2018-05-23T06:29:37.438Z,101684.34
2018-05-23T06:32:43.374Z,101691.22
2018-05-23T06:35:49.494Z,101689.97
2018-05-23T06:38:55.704Z,101693.06
2018-05-23T06:42:00.886Z,101695.23
2018-05-23T06:45:05.696Z,101697.80
2018-05-23T06:48:10.897Z,101700.47
2018-05-23T06:51:16.105Z,101698.80
2018-05-23T06:54:21.305Z,101704.00
2018-05-23T06:57:26.526Z,101706.16
2018-05-23T07:00:31.752Z,101710.98
2018-05-23T07:03:36.950Z,101708.88
2018-05-23T07:06:42.154Z,101710.56
2018-05-23T07:09:47.370Z,101725.20
2018-05-23T07:12:52.573Z,101726.05
2018-05-23T07:15:58.347Z,101731.20
2018-05-23T07:19:04.049Z,101737.19
2018-05-23T07:22:10.083Z,101734.05
2018-05-23T07:25:15.289Z,101736.56
2018-05-23T07:28:20.917Z,101741.71
2018-05-23T07:31:27.041Z,101744.63
2018-05-23T07:34:32.682Z,101744.58
2018-05-23T07:37:37.874Z,101752.31
2018-05-23T07:40:43.077Z,101757.84
2018-05-23T07:43:49.183Z,101758.55
2018-05-23T07:46:56.234Z,101751.53
2018-05-23T07:50:01.518Z,101756.15
2018-05-23T07:53:07.145Z,101754.27
2018-05-23T07:56:13.175Z,101758.78
2018-05-23T07:59:19.215Z,101758.15
2018-05-23T08:02:25.246Z,101764.88
2018-05-23T08:05:31.185Z,101762.89
2018-05-23T08:08:36.404Z,101764.38
2018-05-23T08:11:42.429Z,101774.52
2018-05-23T08:14:48.346Z,101763.82
2018-05-23T08:17:53.553Z,101763.58
2018-05-23T08:20:58.748Z,101774.50
2018-05-23T08:24:04.266Z,101772.94
2018-05-23T08:27:10.154Z,101770.03
2018-05-23T08:30:16.007Z,101772.26
2018-05-23T08:33:22.128Z,101774.95
2018-05-23T08:36:27.420Z,101778.42
2018-05-23T08:39:33.454Z,101785.02
2018-05-23T08:42:39.461Z,101787.59
2018-05-23T08:45:44.674Z,101789.67
2018-05-23T08:48:49.868Z,101786.25
2018-05-23T08:51:55.082Z,101789.30
2018-05-23T08:55:00.313Z,101785.08
2018-05-23T08:58:04.997Z,101781.43
2018-05-23T09:01:10.198Z,101786.66
2018-05-23T09:04:15.406Z,101786.22
2018-05-23T09:07:20.611Z,101781.55
2018-05-23T09:10:25.497Z,101790.76
2018-05-23T09:13:30.690Z,101795.21
2018-05-23T09:16:36.841Z,101792.26
2018-05-23T09:19:42.978Z,101794.09
2018-05-23T09:22:48.997Z,101803.26
2018-05-23T09:25:55.131Z,101807.38
2018-05-23T09:29:01.047Z,101803.09
2018-05-23T09:32:07.164Z,101797.97
2018-05-23T09:35:13.373Z,101808.62
2018-05-23T09:38:19.381Z,101809.97
2018-05-23T09:41:25.444Z,101814.75
2018-05-23T09:44:31.563Z,101807.59
2018-05-23T09:47:37.610Z,101807.30
2018-05-23T09:50:43.642Z,101800.19
2018-05-23T09:53:49.764Z,101802.55
2018-05-23T09:56:54.986Z,101805.91
2018-05-23T10:00:00.603Z,101794.81
2018-05-23T10:03:05.546Z,101806.28
2018-05-23T10:06:11.636Z,101810.58
2018-05-23T10:09:17.791Z,101815.69
2018-05-23T10:12:23.002Z,101813.66
2018-05-23T10:15:28.730Z,101815.60
2018-05-23T10:18:34.781Z,101813.78
2018-05-23T10:21:40.802Z,101824.41
2018-05-23T10:24:46.725Z,101823.65
2018-05-23T10:27:52.648Z,101817.13
2018-05-23T10:30:58.770Z,101823.13
2018-05-23T10:34:04.480Z,101826.13
2018-05-23T10:37:09.393Z,101834.05
2018-05-23T10:40:14.634Z,101838.50
2018-05-23T10:43:35.149Z,101838.17
2018-05-23T10:46:41.194Z,101837.92
2018-05-23T10:49:46.906Z,101835.92
2018-05-23T10:52:52.125Z,101847.38
2018-05-23T10:55:57.362Z,101845.42
2018-05-23T10:59:03.406Z,101843.92
2018-05-23T11:02:09.145Z,101845.52
2018-05-23T11:05:14.344Z,101843.24
2018-05-23T11:08:19.565Z,101847.04
2018-05-23T11:11:24.765Z,101844.42
2018-05-23T11:14:29.981Z,101846.91
2018-05-23T11:17:35.195Z,101845.88
2018-05-23T11:20:40.397Z,101846.20
2018-05-23T11:23:46.649Z,101846.67
2018-05-23T11:26:54.260Z,101842.89
2018-05-23T11:30:00.592Z,101845.67
2018-05-23T11:33:05.994Z,101843.46
2018-05-23T11:36:11.832Z,101843.74
2018-05-23T11:39:17.953Z,101848.81
2018-05-23T11:42:23.638Z,101848.27
2018-05-23T11:45:28.817Z,101842.06
2018-05-23T11:48:35.578Z,101845.32
2018-05-23T11:51:41.189Z,101838.36
2018-05-23T11:54:46.243Z,101837.52
2018-05-23T11:57:51.573Z,101835.73
2018-05-23T12:00:56.793Z,101823.91
2018-05-23T12:04:01.994Z,101845.62
2018-05-23T12:07:08.113Z,101837.25
2018-05-23T12:10:14.245Z,101843.87
2018-05-23T12:13:19.583Z,101849.45
2018-05-23T12:16:24.785Z,101847.17
2018-05-23T12:19:30.091Z,101850.48
2018-05-23T12:22:36.260Z,101855.59
2018-05-23T12:25:42.266Z,101836.71
2018-05-23T12:28:48.284Z,101847.66
2018-05-23T12:31:54.069Z,101840.03
2018-05-23T12:34:59.279Z,101846.38
2018-05-23T12:38:04.876Z,101846.94
2018-05-23T12:41:10.606Z,101838.13
2018-05-23T12:44:16.712Z,101849.46
2018-05-23T12:47:21.921Z,101846.59
2018-05-23T12:50:27.557Z,101846.45
2018-05-23T12:53:33.476Z,101843.86
2018-05-23T12:56:39.506Z,101850.15
2018-05-23T12:59:45.541Z,101847.25
2018-05-23T13:02:51.690Z,101858.67
2018-05-23T13:05:57.621Z,101856.70
2018-05-23T13:09:03.082Z,101855.80
2018-05-23T13:12:08.017Z,101847.44
2018-05-23T13:15:13.645Z,101860.44
2018-05-23T13:18:19.575Z,101850.27
2018-05-23T13:21:24.788Z,101856.14
2018-05-23T13:24:30.721Z,101859.67
2018-05-23T13:27:36.739Z,101854.69
2018-05-23T13:30:42.299Z,101858.04
2018-05-23T13:33:47.507Z,101853.33
2018-05-23T13:36:52.747Z,101852.44
2018-05-23T13:39:57.942Z,101851.74
2018-05-23T13:43:03.153Z,101846.00
2018-05-23T13:46:09.297Z,101846.77
2018-05-23T13:49:15.398Z,101848.87
2018-05-23T13:52:21.526Z,101855.63
2018-05-23T13:55:27.490Z,101848.64
2018-05-23T13:58:32.782Z,101864.20
2018-05-23T14:01:37.989Z,101844.10
2018-05-23T14:04:43.185Z,101848.80
2018-05-23T14:07:49.352Z,101848.11
2018-05-23T14:10:54.571Z,101850.11
2018-05-23T14:14:00.861Z,101839.89
2018-05-23T14:17:06.882Z,101841.27
2018-05-23T14:20:12.797Z,101847.63
2018-05-23T14:23:18.953Z,101839.95
2018-05-23T14:26:24.170Z,101837.25
2018-05-23T14:29:29.380Z,101840.91
2018-05-23T14:32:34.795Z,101846.73
2018-05-23T14:35:40.945Z,101840.77
2018-05-23T14:38:46.963Z,101832.28
2018-05-23T14:41:53.507Z,101834.84
2018-05-23T14:44:58.679Z,101837.40
2018-05-23T14:48:04.797Z,101834.36
2018-05-23T14:51:10.009Z,101831.45
2018-05-23T14:54:15.223Z,101837.80
2018-05-23T14:57:20.443Z,101828.94
2018-05-23T15:00:26.351Z,101835.52
2018-05-23T15:03:32.485Z,101835.31
2018-05-23T15:06:38.293Z,101838.08
2018-05-23T15:09:43.910Z,101843.41
2018-05-23T15:12:49.102Z,101842.50
2018-05-23T15:15:54.517Z,101847.90
2018-05-23T15:18:59.718Z,101841.73
2018-05-23T15:22:04.639Z,101840.98
2018-05-23T15:25:10.347Z,101839.95
2018-05-23T15:28:16.382Z,101844.16
2018-05-23T15:31:22.570Z,101841.05
2018-05-23T15:34:28.681Z,101835.11
2018-05-23T15:37:37.068Z,101842.16
2018-05-23T15:40:42.293Z,101840.44
2018-05-23T15:43:48.405Z,101834.19
2018-05-23T15:46:54.022Z,101839.30
2018-05-23T15:50:00.136Z,101839.38
2018-05-23T15:53:06.187Z,101834.81
2018-05-23T15:56:12.117Z,101837.48
2018-05-23T15:59:18.039Z,101831.38
2018-05-23T16:02:23.748Z,101832.67
2018-05-23T16:05:28.960Z,101831.56
2018-05-23T16:08:35.326Z,101834.30
2018-05-23T16:11:41.521Z,101839.69
2018-05-23T16:14:47.524Z,101834.69
2018-05-23T16:17:53.534Z,101838.20
2018-05-23T16:20:59.592Z,101831.75
2018-05-23T16:24:05.725Z,101846.80
2018-05-23T16:27:11.774Z,101845.99
2018-05-23T16:30:16.999Z,101842.16
2018-05-23T16:33:22.358Z,101852.50
2018-05-23T16:36:28.273Z,101843.51
2018-05-23T16:39:34.974Z,101843.73
2018-05-23T16:42:40.832Z,101846.13
2018-05-23T16:45:46.053Z,101844.01
2018-05-23T16:48:52.190Z,101850.78
2018-05-23T16:51:58.410Z,101843.99
2018-05-23T16:55:04.245Z,101850.14
2018-05-23T16:58:10.352Z,101858.11
2018-05-23T17:01:15.651Z,101855.98
2018-05-23T17:04:20.979Z,101851.78
2018-05-23T17:07:27.853Z,101844.92
2018-05-23T17:10:34.464Z,101846.47
2018-05-23T17:13:39.426Z,101855.34
2018-05-23T17:16:44.360Z,101854.20
2018-05-23T17:19:50.080Z,101853.50
2018-05-23T17:22:56.198Z,101859.28
2018-05-23T17:26:02.325Z,101851.64
2018-05-23T17:29:08.064Z,101850.11
2018-05-23T17:32:13.997Z,101848.56
2018-05-23T17:35:20.139Z,101853.69
2018-05-23T17:38:26.267Z,101853.89
2018-05-23T17:41:32.433Z,101857.00
2018-05-23T17:44:38.597Z,101856.47
2018-05-23T17:47:43.889Z,101855.87
2018-05-23T17:50:49.892Z,101864.67
2018-05-23T17:53:56.036Z,101870.01
2018-05-23T17:57:01.313Z,101870.11
2018-05-23T18:00:06.390Z,101861.56
2018-05-23T18:03:11.618Z,101872.94
2018-05-23T18:06:17.597Z,101863.05
2018-05-23T18:09:23.890Z,101870.19
2018-05-23T18:12:29.093Z,101869.41
2018-05-23T18:15:34.309Z,101866.88
2018-05-23T18:18:39.933Z,101867.11
2018-05-23T18:21:45.170Z,101874.20
2018-05-23T18:24:50.795Z,101866.55
2018-05-23T18:27:56.941Z,101872.33
2018-05-23T18:31:02.178Z,101879.84
2018-05-23T18:34:07.388Z,101877.36
2018-05-23T18:37:13.529Z,101879.27
2018-05-23T18:40:19.457Z,101872.42
2018-05-23T18:43:25.194Z,101870.45
2018-05-23T18:46:31.249Z,101874.76
2018-05-23T18:49:37.141Z,101875.82
2018-05-23T18:52:42.385Z,101881.29
2018-05-23T18:55:49.416Z,101885.06
2018-05-23T18:58:55.249Z,101889.49
2018-05-23T19:02:01.091Z,101897.30
2018-05-23T19:05:06.455Z,101887.48
2018-05-23T19:08:11.451Z,101893.67
2018-05-23T19:11:16.668Z,101897.56
2018-05-23T19:14:21.881Z,101894.66
2018-05-23T19:17:26.842Z,101896.12
2018-05-23T19:20:32.589Z,101894.75
2018-05-23T19:23:37.974Z,101897.91
2018-05-23T19:26:43.209Z,101895.77
2018-05-23T19:29:48.969Z,101901.53
2018-05-23T19:32:56.102Z,101901.14
2018-05-23T19:36:01.306Z,101903.32
2018-05-23T19:39:07.349Z,101899.80
2018-05-23T19:42:13.277Z,101902.45
2018-05-23T19:45:19.103Z,101903.45
2018-05-23T19:48:25.432Z,101905.13
2018-05-23T19:51:31.050Z,101906.00
2018-05-23T19:54:36.928Z,101909.96
2018-05-23T19:57:42.157Z,101921.32
2018-05-23T20:00:47.369Z,101927.25
2018-05-23T20:03:52.596Z,101924.00
2018-05-23T20:06:58.627Z,101931.38
2018-05-23T20:10:03.585Z,101927.31
2018-05-23T20:13:08.522Z,101927.30
2018-05-23T20:16:13.389Z,101929.25
2018-05-23T20:19:19.333Z,101931.16
2018-05-23T20:22:25.158Z,101938.42
2018-05-23T20:25:31.321Z,101934.27
2018-05-23T20:28:36.245Z,101933.37
2018-05-23T20:31:41.541Z,101936.95
2018-05-23T20:34:46.458Z,101943.23
2018-05-23T20:37:52.118Z,101940.54
2018-05-23T20:40:57.461Z,101942.11
2018-05-23T20:44:02.391Z,101942.50
2018-05-23T20:47:07.947Z,101942.81
2018-05-23T20:50:12.870Z,101941.30
2018-05-23T20:53:18.219Z,101941.13
2018-05-23T20:56:23.561Z,101938.38
2018-05-23T20:59:30.309Z,101944.38
2018-05-23T21:02:36.510Z,101942.66
2018-05-23T21:05:41.531Z,101945.61
2018-05-23T21:08:46.682Z,101953.68
2018-05-23T21:11:53.157Z,101956.08
2018-05-23T21:14:58.077Z,101952.69
2018-05-23T21:18:03.717Z,101954.80
2018-05-23T21:21:09.609Z,101954.23
2018-05-23T21:24:14.527Z,101955.29
2018-05-23T21:27:20.473Z,101959.58
2018-05-23T21:30:27.051Z,101958.84
2018-05-23T21:33:31.973Z,101963.59
2018-05-23T21:36:37.621Z,101961.36
2018-05-23T21:39:42.594Z,101966.42
2018-05-23T21:42:48.062Z,101970.20
2018-05-23T21:45:52.993Z,101966.27
2018-05-23T21:48:58.880Z,101964.86
2018-05-23T21:52:03.585Z,101969.71
2018-05-23T21:55:09.710Z,101963.62
2018-05-23T21:58:15.637Z,101968.09
2018-05-23T22:01:20.230Z,101963.11
2018-05-23T22:04:25.880Z,101962.36
2018-05-23T22:07:32.017Z,101957.34
2018-05-23T22:10:37.431Z,101957.92
2018-05-23T22:13:43.292Z,101954.07
2018-05-23T22:16:48.727Z,101965.02
2018-05-23T22:19:54.552Z,101960.99
2018-05-23T22:22:59.494Z,101965.16
2018-05-23T22:26:04.589Z,101965.86
2018-05-23T22:29:10.534Z,101962.19
2018-05-23T22:32:16.078Z,101962.20
2018-05-23T22:35:21.014Z,101958.22
2018-05-23T22:38:26.870Z,101958.12
2018-05-23T22:41:31.785Z,101955.37
2018-05-23T22:44:37.330Z,101956.38
2018-05-23T22:47:42.773Z,101958.44
2018-05-23T22:50:48.484Z,101958.70
2018-05-23T22:53:54.049Z,101957.08
2018-05-23T22:56:59.074Z,101960.04
2018-05-23T23:00:03.951Z,101955.86
2018-05-23T23:03:08.603Z,101950.87
2018-05-23T23:06:14.553Z,101950.27
2018-05-23T23:09:20.742Z,101954.41
2018-05-23T23:12:26.865Z,101952.53
2018-05-23T23:15:32.074Z,101953.48
2018-05-23T23:18:37.270Z,101954.12
2018-05-23T23:21:42.487Z,101963.70
2018-05-23T23:24:47.459Z,101961.87
2018-05-23T23:27:53.139Z,101957.27
2018-05-23T23:30:59.105Z,101952.80
2018-05-23T23:34:04.451Z,101959.88
2018-05-23T23:37:10.565Z,101952.64
2018-05-23T23:40:15.779Z,101949.19
2018-05-23T23:43:21.408Z,101954.95
2018-05-23T23:46:27.527Z,101961.31
2018-05-23T23:49:33.439Z,101957.97
2018-05-23T23:52:39.386Z,101956.78
2018-05-23T23:55:44.601Z,101960.42
2018-05-23T23:58:50.855Z,101954.70
